createdAt,value
2018-01-19T00:02:01.820Z,99160.88
2018-01-19T00:04:33.948Z,99153.90
2018-01-19T00:07:01.711Z,99153.05
2018-01-19T00:09:29.476Z,99154.78
2018-01-19T00:11:57.707Z,99158.70
2018-01-19T00:14:25.912Z,99158.27
2018-01-19T00:16:54.138Z,99159.55
2018-01-19T00:19:22.129Z,99158.20
2018-01-19T00:21:54.123Z,99157.78
2018-01-19T00:24:24.348Z,99152.11
2018-01-19T00:26:52.719Z,99154.30
2018-01-19T00:29:20.968Z,99158.66
2018-01-19T00:31:53.171Z,99151.69
2018-01-19T00:34:25.270Z,99155.59
2018-01-19T00:36:53.461Z,99143.86
2018-01-19T00:39:23.574Z,99151.26
2018-01-19T00:41:51.743Z,99155.17
2018-01-19T00:44:19.977Z,99156.94
2018-01-19T00:46:52.958Z,99152.14
2018-01-19T00:49:20.873Z,99148.26
2018-01-19T00:51:50.956Z,99149.14
2018-01-19T00:54:19.010Z,99146.53
2018-01-19T00:56:47.235Z,99145.23
2018-01-19T00:59:15.201Z,99140.01
2018-01-19T01:01:47.538Z,99146.95
2018-01-19T01:04:17.752Z,99142.16
2018-01-19T01:06:45.973Z,99143.92
2018-01-19T01:09:13.937Z,99132.61
2018-01-19T01:11:41.964Z,99137.86
2018-01-19T01:14:09.793Z,99143.08
2018-01-19T01:16:38.101Z,99138.28
2018-01-19T01:19:06.132Z,99145.65
2018-01-19T01:21:34.116Z,99149.98
2018-01-19T01:24:02.810Z,99143.08
2018-01-19T01:26:34.896Z,99143.95
2018-01-19T01:29:07.059Z,99143.56
2018-01-19T01:31:35.177Z,99147.05
2018-01-19T01:34:03.367Z,99140.10
2018-01-19T01:36:31.332Z,99134.56
2018-01-19T01:38:59.381Z,99131.06
2018-01-19T01:41:27.438Z,99133.25
2018-01-19T01:43:55.689Z,99124.13
2018-01-19T01:46:23.619Z,99125.46
2018-01-19T01:49:03.412Z,99128.92
2018-01-19T01:51:31.672Z,99120.70
2018-01-19T01:53:59.614Z,99115.91
2018-01-19T01:56:27.824Z,99119.43
2018-01-19T01:58:56.083Z,99116.85
2018-01-19T02:01:24.111Z,99115.61
2018-01-19T02:03:54.252Z,99111.70
2018-01-19T02:06:24.195Z,99110.84
2018-01-19T02:08:52.172Z,99118.64
2018-01-19T02:11:20.100Z,99127.80
2018-01-19T02:13:50.155Z,99129.11
2018-01-19T02:16:18.537Z,99130.41
2018-01-19T02:18:49.108Z,99144.76
2018-01-19T02:21:17.609Z,99142.61
2018-01-19T02:23:45.576Z,99157.80
2018-01-19T02:26:13.882Z,99157.38
2018-01-19T02:28:42.260Z,99153.04
2018-01-19T02:31:10.640Z,99155.62
2018-01-19T02:33:39.031Z,99157.80
2018-01-19T02:36:09.130Z,99155.19
2018-01-19T02:38:37.069Z,99154.34
2018-01-19T02:41:05.268Z,99148.67
2018-01-19T02:43:33.251Z,99153.04
2018-01-19T02:46:01.532Z,99155.19
2018-01-19T02:48:31.939Z,99148.67
2018-01-19T02:50:59.898Z,99153.04
2018-01-19T02:53:28.089Z,99152.16
2018-01-19T02:55:56.027Z,99151.73
2018-01-19T02:58:26.220Z,99153.89
2018-01-19T03:00:55.061Z,99153.89
2018-01-19T03:03:25.087Z,99167.81
2018-01-19T03:05:52.854Z,99172.14
2018-01-19T03:08:20.706Z,99170.91
2018-01-19T03:10:48.945Z,99187.89
2018-01-19T03:13:17.246Z,99190.44
2018-01-19T03:15:45.202Z,99189.59
2018-01-19T03:18:13.391Z,99179.21
2018-01-19T03:20:43.468Z,99173.09
2018-01-19T03:23:11.674Z,99170.02
2018-01-19T03:25:39.713Z,99166.56
2018-01-19T03:28:07.701Z,99159.62
2018-01-19T03:30:35.924Z,99158.34
2018-01-19T03:33:06.550Z,99152.25
2018-01-19T03:35:35.102Z,99151.44
2018-01-19T03:38:03.065Z,99149.67
2018-01-19T03:40:31.072Z,99150.16
2018-01-19T03:42:58.831Z,99151.92
2018-01-19T03:45:26.604Z,99158.02
2018-01-19T03:47:54.734Z,99160.63
2018-01-19T03:50:22.992Z,99150.62
2018-01-19T03:52:50.992Z,99156.69
2018-01-19T03:55:23.223Z,99155.41
2018-01-19T03:57:51.550Z,99158.86
2018-01-19T04:00:19.379Z,99148.01
2018-01-19T04:02:47.570Z,99144.98
2018-01-19T04:05:15.645Z,99141.06
2018-01-19T04:07:43.610Z,99139.43
2018-01-19T04:10:11.866Z,99152.89
2018-01-19T04:12:39.858Z,99155.95
2018-01-19T04:15:07.897Z,99157.35
2018-01-19T04:17:35.857Z,99157.78
2018-01-19T04:20:04.233Z,99150.38
2018-01-19T04:22:32.002Z,99151.68
2018-01-19T04:24:59.811Z,99145.65
2018-01-19T04:27:28.050Z,99137.41
2018-01-19T04:29:57.264Z,99135.28
2018-01-19T04:32:25.231Z,99130.49
2018-01-19T04:34:53.535Z,99122.70
2018-01-19T04:37:25.607Z,99122.24
2018-01-19T04:39:53.851Z,99127.03
2018-01-19T04:42:22.092Z,99137.04
2018-01-19T04:44:52.459Z,99141.41
2018-01-19T04:47:20.498Z,99132.31
2018-01-19T04:49:50.267Z,99140.07
2018-01-19T04:52:18.552Z,99133.55
2018-01-19T04:54:46.529Z,99138.38
2018-01-19T04:57:18.536Z,99136.61
2018-01-19T04:59:50.530Z,99144.89
2018-01-19T05:02:22.599Z,99142.73
2018-01-19T05:04:50.533Z,99141.89
2018-01-19T05:07:18.596Z,99141.05
2018-01-19T05:09:46.540Z,99140.16
2018-01-19T05:12:14.309Z,99142.73
2018-01-19T05:14:46.392Z,99145.44
2018-01-19T05:17:14.592Z,99161.48
2018-01-19T05:19:42.324Z,99166.23
2018-01-19T05:22:10.288Z,99168.84
2018-01-19T05:24:38.608Z,99176.67
2018-01-19T05:27:06.987Z,99178.82
2018-01-19T05:29:35.244Z,99188.34
2018-01-19T05:32:03.141Z,99189.22
2018-01-19T05:34:31.325Z,99190.47
2018-01-19T05:36:59.575Z,99196.80
2018-01-19T05:39:29.808Z,99195.83
2018-01-19T05:41:57.639Z,99192.28
2018-01-19T05:44:25.858Z,99199.66
2018-01-19T05:46:53.712Z,99197.05
2018-01-19T05:49:22.388Z,99189.77
2018-01-19T05:51:50.233Z,99185.72
2018-01-19T05:54:18.570Z,99192.70
2018-01-19T05:56:46.432Z,99209.33
2018-01-19T05:59:14.375Z,99203.69
2018-01-19T06:01:45.063Z,99197.20
2018-01-19T06:04:12.971Z,99196.55
2018-01-19T06:06:43.191Z,99202.31
2018-01-19T06:09:11.210Z,99212.48
2018-01-19T06:11:41.224Z,99218.08
2018-01-19T06:14:09.551Z,99221.50
2018-01-19T06:16:41.805Z,99217.77
2018-01-19T06:19:09.870Z,99220.07
2018-01-19T06:21:37.761Z,99232.83
2018-01-19T06:24:05.825Z,99228.66
2018-01-19T06:26:33.609Z,99236.07
2018-01-19T06:29:02.459Z,99248.23
2018-01-19T06:31:32.298Z,99248.54
2018-01-19T06:34:03.377Z,99251.58
2018-01-19T06:36:37.556Z,99259.92
2018-01-19T06:39:05.820Z,99273.31
2018-01-19T06:41:33.859Z,99282.74
2018-01-19T06:44:01.860Z,99288.39
2018-01-19T06:46:29.616Z,99287.76
2018-01-19T06:48:58.280Z,99290.16
2018-01-19T06:51:25.942Z,99280.55
2018-01-19T06:53:53.941Z,99275.83
2018-01-19T06:56:22.790Z,99273.73
2018-01-19T06:58:50.872Z,99284.98
2018-01-19T07:01:19.060Z,99280.60
2018-01-19T07:03:46.809Z,99280.19
2018-01-19T07:06:14.891Z,99277.05
2018-01-19T07:08:43.882Z,99281.41
2018-01-19T07:11:11.858Z,99276.67
2018-01-19T07:13:40.837Z,99289.45
2018-01-19T07:16:14.983Z,99287.44
2018-01-19T07:18:44.285Z,99279.53
2018-01-19T07:21:14.509Z,99268.95
2018-01-19T07:23:42.326Z,99279.05
2018-01-19T07:26:10.515Z,99283.03
2018-01-19T07:28:40.605Z,99290.52
2018-01-19T07:31:08.697Z,99281.77
2018-01-19T07:33:39.671Z,99281.67
2018-01-19T07:36:07.502Z,99280.73
2018-01-19T07:38:35.704Z,99283.35
2018-01-19T07:41:03.834Z,99284.37
2018-01-19T07:43:31.647Z,99279.94
2018-01-19T07:46:03.563Z,99280.95
2018-01-19T07:48:35.615Z,99284.99
2018-01-19T07:51:09.788Z,99290.14
2018-01-19T07:53:37.541Z,99287.48
2018-01-19T07:56:05.319Z,99291.22
2018-01-19T07:58:33.599Z,99288.64
2018-01-19T08:01:01.631Z,99294.66
2018-01-19T08:03:33.696Z,99295.03
2018-01-19T08:06:01.687Z,99295.18
2018-01-19T08:08:29.961Z,99295.05
2018-01-19T08:10:58.045Z,99290.50
2018-01-19T08:13:28.266Z,99287.41
2018-01-19T08:15:56.105Z,99288.11
2018-01-19T08:18:25.952Z,99294.11
2018-01-19T08:20:53.752Z,99297.91
2018-01-19T08:23:21.817Z,99308.80
2018-01-19T08:25:50.772Z,99311.99
2018-01-19T08:28:18.527Z,99306.27
2018-01-19T08:30:50.839Z,99307.42
2018-01-19T08:33:18.672Z,99310.58
2018-01-19T08:35:52.897Z,99315.89
2018-01-19T08:38:22.799Z,99319.07
2018-01-19T08:40:50.563Z,99322.95
2018-01-19T08:43:18.361Z,99317.76
2018-01-19T08:45:50.870Z,99320.13
2018-01-19T08:48:18.954Z,99321.86
2018-01-19T08:50:55.169Z,99322.02
2018-01-19T08:53:23.191Z,99318.20
2018-01-19T08:55:51.223Z,99316.05
2018-01-19T08:58:19.223Z,99314.00
2018-01-19T09:00:49.297Z,99316.34
2018-01-19T09:03:17.094Z,99318.02
2018-01-19T09:05:47.045Z,99313.71
2018-01-19T09:08:15.050Z,99311.87
2018-01-19T09:10:43.094Z,99309.44
2018-01-19T09:13:11.334Z,99306.38
2018-01-19T09:15:39.375Z,99295.53
2018-01-19T09:18:07.598Z,99295.22
2018-01-19T09:20:35.381Z,99293.11
2018-01-19T09:23:03.599Z,99293.90
2018-01-19T09:25:31.597Z,99300.80
2018-01-19T09:27:59.875Z,99298.37
2018-01-19T09:30:27.842Z,99293.73
2018-01-19T09:32:56.016Z,99291.30
2018-01-19T09:35:26.056Z,99296.20
2018-01-19T09:37:56.274Z,99294.20
2018-01-19T09:40:24.428Z,99291.80
2018-01-19T09:42:56.296Z,99285.60
2018-01-19T09:45:24.511Z,99281.12
2018-01-19T09:47:52.629Z,99280.49
2018-01-19T09:50:20.548Z,99283.13
2018-01-19T09:52:50.717Z,99285.60
2018-01-19T09:55:18.546Z,99285.71
2018-01-19T09:57:46.219Z,99282.06
2018-01-19T10:00:15.239Z,99276.06
2018-01-19T10:02:45.473Z,99279.89
2018-01-19T10:05:13.530Z,99276.17
2018-01-19T10:07:42.426Z,99271.22
2018-01-19T10:10:14.599Z,99261.96
2018-01-19T10:12:42.517Z,99261.31
2018-01-19T10:15:10.636Z,99257.94
2018-01-19T10:17:38.803Z,99257.67
2018-01-19T10:20:07.054Z,99257.40
2018-01-19T10:22:35.019Z,99249.61
2018-01-19T10:25:03.685Z,99250.72
2018-01-19T10:27:33.896Z,99243.77
2018-01-19T10:30:01.931Z,99247.06
2018-01-19T10:32:29.708Z,99243.23
2018-01-19T10:34:59.608Z,99240.22
2018-01-19T10:37:29.843Z,99232.80
2018-01-19T10:39:59.829Z,99227.36
2018-01-19T10:42:28.003Z,99218.78
2018-01-19T10:44:56.088Z,99225.55
2018-01-19T10:47:24.000Z,99216.55
2018-01-19T10:49:52.189Z,99210.67
2018-01-19T10:52:24.398Z,99209.47
2018-01-19T10:54:52.510Z,99210.24
2018-01-19T10:57:22.737Z,99213.19
2018-01-19T10:59:51.071Z,99202.25
2018-01-19T11:02:18.842Z,99203.30
2018-01-19T11:04:47.065Z,99196.92
2018-01-19T11:07:14.975Z,99186.47
2018-01-19T11:09:47.038Z,99189.56
2018-01-19T11:12:14.798Z,99189.66
2018-01-19T11:14:45.029Z,99178.83
2018-01-19T11:17:12.792Z,99174.06
2018-01-19T11:19:44.605Z,99172.06
2018-01-19T11:22:12.624Z,99167.48
2018-01-19T11:24:44.720Z,99163.81
2018-01-19T11:27:14.611Z,99163.72
2018-01-19T11:29:42.682Z,99162.98
2018-01-19T11:32:11.664Z,99161.63
2018-01-19T11:34:39.470Z,99162.92
2018-01-19T11:37:08.166Z,99156.28
2018-01-19T11:39:42.101Z,99153.89
2018-01-19T11:42:09.813Z,99150.08
2018-01-19T11:44:39.707Z,99152.02
2018-01-19T11:47:07.915Z,99151.77
2018-01-19T11:49:40.179Z,99147.59
2018-01-19T11:52:08.904Z,99141.84
2018-01-19T11:54:36.621Z,99144.15
2018-01-19T11:57:04.660Z,99141.34
2018-01-19T11:59:32.501Z,99144.19
2018-01-19T12:02:02.642Z,99147.67
2018-01-19T12:04:30.718Z,99140.27
2018-01-19T12:07:00.632Z,99135.22
2018-01-19T12:09:28.392Z,99136.84
2018-01-19T12:11:56.501Z,99130.52
2018-01-19T12:14:24.523Z,99135.20
2018-01-19T12:16:52.308Z,99138.83
2018-01-19T12:19:26.524Z,99140.37
2018-01-19T12:21:54.766Z,99136.04
2018-01-19T12:24:22.696Z,99132.41
2018-01-19T12:26:50.719Z,99134.10
2018-01-19T12:29:18.865Z,99130.75
2018-01-19T12:31:46.507Z,99129.59
2018-01-19T12:34:16.784Z,99132.52
2018-01-19T12:36:44.535Z,99126.26
2018-01-19T12:39:14.779Z,99127.72
2018-01-19T12:41:46.876Z,99122.19
2018-01-19T12:44:15.059Z,99124.55
2018-01-19T12:46:42.975Z,99127.75
2018-01-19T12:49:10.736Z,99129.48
2018-01-19T12:51:40.731Z,99126.43
2018-01-19T12:54:08.920Z,99128.27
2018-01-19T12:56:36.795Z,99118.33
2018-01-19T12:59:08.847Z,99118.93
2018-01-19T13:01:36.994Z,99119.82
2018-01-19T13:04:05.282Z,99116.83
2018-01-19T13:06:35.308Z,99121.38
2018-01-19T13:09:07.888Z,99115.71
2018-01-19T13:11:37.191Z,99122.52
2018-01-19T13:14:06.183Z,99118.45
2018-01-19T13:16:33.959Z,99114.08
2018-01-19T13:19:01.927Z,99126.94
2018-01-19T13:21:29.842Z,99119.36
2018-01-19T13:23:57.851Z,99122.39
2018-01-19T13:26:29.923Z,99125.13
2018-01-19T13:28:57.737Z,99120.91
2018-01-19T13:31:28.831Z,99121.86
2018-01-19T13:33:56.600Z,99121.84
2018-01-19T13:36:24.973Z,99124.84
2018-01-19T13:38:55.080Z,99127.00
2018-01-19T13:41:23.016Z,99130.43
2018-01-19T13:43:50.781Z,99126.05
2018-01-19T13:46:18.804Z,99129.96
2018-01-19T13:48:48.714Z,99136.00
2018-01-19T13:51:16.468Z,99144.66
2018-01-19T13:53:44.270Z,99137.23
2018-01-19T13:56:19.070Z,99142.97
2018-01-19T13:58:47.135Z,99145.06
2018-01-19T14:01:15.891Z,99153.30
2018-01-19T14:03:43.589Z,99155.86
2018-01-19T14:06:11.822Z,99146.40
2018-01-19T14:08:41.881Z,99144.66
2018-01-19T14:11:10.730Z,99148.51
2018-01-19T14:13:38.979Z,99148.40
2018-01-19T14:16:06.699Z,99147.67
2018-01-19T14:18:34.472Z,99149.70
2018-01-19T14:21:06.618Z,99153.16
2018-01-19T14:23:34.855Z,99150.08
2018-01-19T14:26:07.013Z,99153.58
2018-01-19T14:28:35.044Z,99160.48
2018-01-19T14:31:02.877Z,99154.64
2018-01-19T14:33:32.794Z,99151.88
2018-01-19T14:36:00.997Z,99140.30
2018-01-19T14:38:31.943Z,99139.23
2018-01-19T14:40:59.583Z,99134.22
2018-01-19T14:43:29.621Z,99135.78
2018-01-19T14:45:57.872Z,99138.13
2018-01-19T14:48:25.797Z,99135.69
2018-01-19T14:50:53.471Z,99139.44
2018-01-19T14:53:21.109Z,99140.48
2018-01-19T14:55:49.720Z,99137.20
2018-01-19T14:58:17.366Z,99146.61
2018-01-19T15:00:45.048Z,99153.80
2018-01-19T15:03:12.701Z,99155.33
2018-01-19T15:05:44.708Z,99165.12
2018-01-19T15:08:12.471Z,99168.34
2018-01-19T15:10:40.853Z,99167.22
2018-01-19T15:13:16.668Z,99170.42
2018-01-19T15:15:44.860Z,99171.48
2018-01-19T15:18:12.840Z,99170.31
2018-01-19T15:20:40.965Z,99171.80
2018-01-19T15:23:09.082Z,99183.31
2018-01-19T15:25:37.021Z,99176.94
2018-01-19T15:28:05.213Z,99170.48
2018-01-19T15:30:33.155Z,99165.79
2018-01-19T15:33:05.220Z,99158.94
2018-01-19T15:35:33.443Z,99168.25
2018-01-19T15:38:01.344Z,99171.80
2018-01-19T15:40:33.388Z,99161.41
2018-01-19T15:43:01.504Z,99163.69
2018-01-19T15:45:31.421Z,99167.25
2018-01-19T15:47:59.488Z,99173.47
2018-01-19T15:50:29.689Z,99173.55
2018-01-19T15:52:58.020Z,99179.73
2018-01-19T15:55:26.703Z,99181.09
2018-01-19T15:57:54.782Z,99188.99
2018-01-19T16:00:22.850Z,99196.05
2018-01-19T16:02:51.530Z,99187.81
2018-01-19T16:05:19.311Z,99197.53
2018-01-19T16:07:54.813Z,99201.09
2018-01-19T16:10:24.967Z,99213.05
2018-01-19T16:12:52.920Z,99214.48
2018-01-19T16:15:26.207Z,99206.33
2018-01-19T16:17:54.150Z,99203.92
2018-01-19T16:20:26.640Z,99203.92
2018-01-19T16:22:56.780Z,99200.03
2018-01-19T16:25:25.058Z,99203.16
2018-01-19T16:27:53.285Z,99204.94
2018-01-19T16:30:21.274Z,99208.86
2018-01-19T16:32:49.577Z,99212.34
2018-01-19T16:35:17.666Z,99209.80
2018-01-19T16:37:49.112Z,99217.27
2018-01-19T16:40:17.687Z,99228.69
2018-01-19T16:42:45.804Z,99225.27
2018-01-19T16:45:13.631Z,99225.73
2018-01-19T16:47:44.186Z,99224.08
2018-01-19T16:50:12.304Z,99236.41
2018-01-19T16:52:43.065Z,99232.14
2018-01-19T16:55:11.207Z,99234.84
2018-01-19T16:57:39.372Z,99233.57
2018-01-19T17:00:07.463Z,99231.00
2018-01-19T17:02:42.145Z,99240.20
2018-01-19T17:05:12.011Z,99241.14
2018-01-19T17:07:40.594Z,99243.41
2018-01-19T17:10:09.391Z,99244.80
2018-01-19T17:12:42.685Z,99243.66
2018-01-19T17:15:10.505Z,99246.78
2018-01-19T17:17:40.981Z,99242.47
2018-01-19T17:20:09.039Z,99249.94
2018-01-19T17:22:37.417Z,99248.67
2018-01-19T17:25:06.567Z,99241.39
2018-01-19T17:27:34.804Z,99251.95
2018-01-19T17:30:05.019Z,99255.53
2018-01-19T17:32:33.119Z,99262.63
2018-01-19T17:35:01.331Z,99261.93
2018-01-19T17:37:29.626Z,99253.23
2018-01-19T17:40:00.435Z,99253.27
2018-01-19T17:42:30.480Z,99255.55
2018-01-19T17:44:58.418Z,99260.97
2018-01-19T17:47:27.351Z,99265.40
2018-01-19T17:49:55.475Z,99265.09
2018-01-19T17:52:25.686Z,99263.02
2018-01-19T17:54:59.252Z,99266.52
2018-01-19T17:57:27.307Z,99265.67
2018-01-19T17:59:55.765Z,99277.45
2018-01-19T18:02:28.074Z,99270.55
2018-01-19T18:04:56.490Z,99273.17
2018-01-19T18:07:24.839Z,99266.72
2018-01-19T18:09:55.043Z,99258.02
2018-01-19T18:12:23.616Z,99259.48
2018-01-19T18:14:53.403Z,99267.44
2018-01-19T18:17:21.593Z,99261.74
2018-01-19T18:19:52.560Z,99264.28
2018-01-19T18:22:21.326Z,99269.98
2018-01-19T18:24:50.115Z,99268.33
2018-01-19T18:27:22.285Z,99270.06
2018-01-19T18:29:51.173Z,99276.18
2018-01-19T18:32:19.137Z,99270.09
2018-01-19T18:34:46.805Z,99270.55
2018-01-19T18:37:14.642Z,99271.41
2018-01-19T18:39:42.868Z,99279.33
2018-01-19T18:42:10.900Z,99272.02
2018-01-19T18:44:40.951Z,99269.36
2018-01-19T18:47:09.835Z,99269.40
2018-01-19T18:49:37.800Z,99266.82
2018-01-19T18:52:06.286Z,99264.16
2018-01-19T18:54:34.443Z,99255.43
2018-01-19T18:57:09.766Z,99255.85
2018-01-19T18:59:37.870Z,99254.16
2018-01-19T19:02:12.246Z,99251.55
2018-01-19T19:04:40.437Z,99249.39
2018-01-19T19:07:08.380Z,99253.39
2018-01-19T19:09:38.553Z,99256.89
2018-01-19T19:12:07.784Z,99259.13
2018-01-19T19:14:35.749Z,99261.31
2018-01-19T19:17:11.541Z,99257.81
2018-01-19T19:19:39.481Z,99255.69
2018-01-19T19:22:10.561Z,99243.95
2018-01-19T19:24:38.386Z,99237.88
2018-01-19T19:27:10.096Z,99242.27
2018-01-19T19:29:42.810Z,99237.49
2018-01-19T19:32:10.934Z,99236.22
2018-01-19T19:34:39.848Z,99237.57
2018-01-19T19:37:08.213Z,99242.88
2018-01-19T19:39:39.970Z,99242.10
2018-01-19T19:42:08.880Z,99244.33
2018-01-19T19:44:36.807Z,99249.25
2018-01-19T19:47:09.708Z,99249.29
2018-01-19T19:49:40.251Z,99252.86
2018-01-19T19:52:07.935Z,99250.78
2018-01-19T19:54:35.621Z,99252.97
2018-01-19T19:57:03.645Z,99257.47
2018-01-19T19:59:31.688Z,99249.66
2018-01-19T20:01:59.981Z,99258.77
2018-01-19T20:04:28.268Z,99253.08
2018-01-19T20:06:58.776Z,99261.35
2018-01-19T20:09:26.715Z,99262.66
2018-01-19T20:11:54.880Z,99257.47
2018-01-19T20:14:24.951Z,99259.20
2018-01-19T20:16:57.307Z,99262.70
2018-01-19T20:19:25.388Z,99266.69
2018-01-19T20:21:55.968Z,99271.53
2018-01-19T20:24:26.208Z,99266.73
2018-01-19T20:26:54.410Z,99260.69
2018-01-19T20:29:25.352Z,99272.03
2018-01-19T20:31:55.576Z,99269.48
2018-01-19T20:34:23.694Z,99273.41
2018-01-19T20:36:51.911Z,99271.75
2018-01-19T20:39:19.960Z,99273.06
2018-01-19T20:41:48.368Z,99279.17
2018-01-19T20:44:20.264Z,99279.17
2018-01-19T20:46:48.382Z,99280.48
2018-01-19T20:49:16.973Z,99280.06
2018-01-19T20:51:45.103Z,99268.75
2018-01-19T20:54:19.585Z,99266.59
2018-01-19T20:56:50.356Z,99263.17
2018-01-19T20:59:22.374Z,99269.28
2018-01-19T21:01:50.415Z,99271.08
2018-01-19T21:04:18.330Z,99271.97
2018-01-19T21:06:49.136Z,99267.20
2018-01-19T21:09:17.936Z,99275.57
2018-01-19T21:11:46.052Z,99274.33
2018-01-19T21:14:16.777Z,99270.88
2018-01-19T21:16:45.610Z,99278.75
2018-01-19T21:19:13.547Z,99287.91
2018-01-19T21:21:41.938Z,99292.70
2018-01-19T21:24:14.244Z,99296.23
2018-01-19T21:26:44.155Z,99297.13
2018-01-19T21:29:12.310Z,99304.12
2018-01-19T21:31:40.525Z,99306.31
2018-01-19T21:34:10.522Z,99307.69
2018-01-19T21:36:38.708Z,99316.38
2018-01-19T21:39:08.811Z,99317.75
2018-01-19T21:41:36.876Z,99317.33
2018-01-19T21:44:05.030Z,99318.67
2018-01-19T21:46:33.192Z,99328.31
2018-01-19T21:49:06.386Z,99322.20
2018-01-19T21:51:34.577Z,99323.12
2018-01-19T21:54:02.514Z,99323.16
2018-01-19T21:56:30.780Z,99328.45
2018-01-19T21:58:58.806Z,99326.30
2018-01-19T22:01:29.888Z,99321.95
2018-01-19T22:03:58.123Z,99311.48
2018-01-19T22:06:26.703Z,99317.63
2018-01-19T22:08:58.570Z,99313.72
2018-01-19T22:11:26.341Z,99314.63
2018-01-19T22:13:54.034Z,99320.28
2018-01-19T22:16:22.672Z,99323.78
2018-01-19T22:18:50.796Z,99321.23
2018-01-19T22:21:18.616Z,99323.42
2018-01-19T22:23:50.852Z,99324.34
2018-01-19T22:26:19.275Z,99314.34
2018-01-19T22:28:47.315Z,99308.23
2018-01-19T22:31:16.110Z,99300.42
2018-01-19T22:33:44.496Z,99300.49
2018-01-19T22:36:13.256Z,99293.96
2018-01-19T22:38:41.449Z,99299.61
2018-01-19T22:41:13.976Z,99290.92
2018-01-19T22:43:44.050Z,99287.07
2018-01-19T22:46:14.115Z,99280.11
2018-01-19T22:48:42.333Z,99270.97
2018-01-19T22:51:10.995Z,99259.73
2018-01-19T22:53:45.646Z,99256.20
2018-01-19T22:56:13.415Z,99264.53
2018-01-19T22:58:43.518Z,99252.81
2018-01-19T23:01:20.615Z,99246.28
2018-01-19T23:03:48.687Z,99238.89
2018-01-19T23:06:18.949Z,99242.00
2018-01-19T23:08:47.029Z,99242.88
2018-01-19T23:11:16.286Z,99248.99
2018-01-19T23:13:43.940Z,99236.34
2018-01-19T23:16:13.960Z,99244.65
2018-01-19T23:18:42.645Z,99238.61
2018-01-19T23:21:12.868Z,99244.33
2018-01-19T23:23:41.123Z,99252.59
2018-01-19T23:26:09.160Z,99254.32
2018-01-19T23:28:38.297Z,99258.23
2018-01-19T23:31:06.194Z,99260.39
2018-01-19T23:33:34.209Z,99263.47
2018-01-19T23:36:06.514Z,99267.00
2018-01-19T23:38:34.270Z,99254.39
2018-01-19T23:41:01.991Z,99254.00
2018-01-19T23:43:29.871Z,99247.47
2018-01-19T23:45:57.936Z,99246.30
2018-01-19T23:48:26.127Z,99251.13
2018-01-19T23:50:54.066Z,99247.25
2018-01-19T23:53:22.133Z,99255.90
2018-01-19T23:55:50.321Z,99266.81
2018-01-19T23:58:18.325Z,99276.37
